Terminal Aerodrome Forecast
Issued by NWS Buffalo, NY

Home | Current Version | Previous Version | Text Only | Print | Product List | Glossary On
Versions: 1 2 3 4 5 6 7 8 9 10 11 12 13 14 15 16 17 18 19 20 21 22 23 24 25 26 27 28 29
050
FTUS41 KBUF 100521
TAFART
TAF
KART 100521Z 1006/1106 VRB04KT 6SM -SN OVC007
     FM100800 22004KT 4SM -SN OVC007
     FM101100 21004KT 2SM -SHSN OVC012
     FM102100 27008KT 3SM -SHSN OVC025
     FM110000 27008KT 1/2SM SN OVC025
     FM110200 27008KT 4SM -SN OVC020
     FM110500 30008KT P6SM OVC015=

USA.gov is the U.S. government's official web portal to all federal, state and local government web resources and services.